Penney Farms, Florida
Current Conditions -  °F | °C
As of 10:50 AM on Friday 28 Nov 2014 (Local Time) from KVQQ Reporting Station
Clear Clear  
Wind Chill: 45°   Ceiling: Unl
Heat Index: 48°   Visibility: 10mi
Dew Point: 30°   Wind: 8mph
Humidity: 50%   Direction: 20°NNE
Pressure: 30.39"   Gusts: NA
Location:  29.98°N, 81.81°W
Report Text: KVQQ 281550Z 02007KT 10SM CLR 09/M01 A3039
Loading
Personal Weather Stations






























Interactive Weather Map New forecast layout! Learn more

10-Day Weather Forecast

Advertisements
Track Severe Weather on mobile